Rankings de siempre
Mejores tiempos personales válidos de atleta a través de todos los eventos y temporadas. Cada atleta aparece una vez por división.
Busca por nombre y abre la página donde está clasificado este récord de división.
104,510 atletas clasificados
| Pos. | Pos. AG | Atleta | Nacionalidad | Categoría de edad | TiempoMejor tiempo | Diferencia |
|---|---|---|---|---|---|---|
| 88901 | #12459 | Gabrielle JimenezGBR · W 16-24 · AG #12459 | GBR | W 16-24 | 1:57:38 | +78:02 |
| 88902 | #21292 | Jia Zhen TeohMAS · W 30-34 · AG #21292 | MAS | W 30-34 | 1:57:38 | +78:02 |
| 88903 | #21562 | Erica AllenAUS · W 25-29 · AG #21562 | AUS | W 25-29 | 1:57:38 | +78:02 |
| 88904 | #12460 | Lila KellyAUS · W 16-24 · AG #12460 | AUS | W 16-24 | 1:57:38 | +78:02 |
| 88905 | #12461 | Thalia Maria KrijgerNED · W 16-24 · AG #12461 | NED | W 16-24 | 1:57:38 | +78:02 |
| 88906 | #21563 | Melany BarbosaMEX · W 25-29 · AG #21563 | MEX | W 25-29 | 1:57:38 | +78:02 |
| 88907 | #21293 | Pauline AH-HOTFRA · W 30-34 · AG #21293 | FRA | W 30-34 | 1:57:38 | +78:02 |
| 88908 | #16397 | Mitra VijapurapuGBR · W 35-39 · AG #16397 | GBR | W 35-39 | 1:57:38 | +78:02 |
| 88909 | #3076 | Angela HardingGBR · W 50-54 · AG #3076 | GBR | W 50-54 | 1:57:39 | +78:03 |
| 88910 | #21564 | Leah AldredGBR · W 25-29 · AG #21564 | GBR | W 25-29 | 1:57:39 | +78:03 |
| 88911 | #6445 | Yvonne Salzmann BalzerGER · W 45-49 · AG #6445 | GER | W 45-49 | 1:57:39 | +78:03 |
| 88912 | #12462 | Amelia BennettGBR · W 16-24 · AG #12462 | GBR | W 16-24 | 1:57:39 | +78:03 |
| 88913 | #11495 | Cordelia MapfumoZIM · W 40-44 · AG #11495 | ZIM | W 40-44 | 1:57:39 | +78:03 |
| 88914 | #21294 | Lauren HummelCAN · W 30-34 · AG #21294 | CAN | W 30-34 | 1:57:39 | +78:03 |
| 88915 | #21565 | Rebecca BurrowsGBR · W 25-29 · AG #21565 | GBR | W 25-29 | 1:57:39 | +78:03 |
| 88916 | #21566 | Vanessa Urquizo HollanderUSA · W 25-29 · AG #21566 | USA | W 25-29 | 1:57:39 | +78:03 |
| 88917 | #21567 | Constance BelmontetFRA · W 25-29 · AG #21567 | FRA | W 25-29 | 1:57:39 | +78:03 |
| 88918 | #12463 | Manon Dewaest-FaureFRA · W 16-24 · AG #12463 | FRA | W 16-24 | 1:57:39 | +78:03 |
| 88919 | #21295 | Carrie WestUSA · W 30-34 · AG #21295 | USA | W 30-34 | 1:57:39 | +78:03 |
| 88920 | #21568 | 淼 商CHN · W 25-29 · AG #21568 | CHN | W 25-29 | 1:57:39 | +78:03 |
| 88921 | #3077 | Catherine VanerisGBR · W 50-54 · AG #3077 | GBR | W 50-54 | 1:57:39 | +78:03 |
| 88922 | #11496 | Neelam JainIND · W 40-44 · AG #11496 | IND | W 40-44 | 1:57:39 | +78:03 |
| 88923 | #12464 | Lilit ArakelyanARM · W 16-24 · AG #12464 | ARM | W 16-24 | 1:57:39 | +78:03 |
| 88924 | #21296 | Kelly WongCAN · W 30-34 · AG #21296 | CAN | W 30-34 | 1:57:40 | +78:04 |
| 88925 | #21569 | Julia RegelPOL · W 25-29 · AG #21569 | POL | W 25-29 | 1:57:40 | +78:04 |
Página 3,557 de 4,181